createdAt,value
2023-04-17T00:01:47.823Z,36.70
2023-04-17T00:04:16.690Z,48.25
2023-04-17T00:06:45.205Z,47.55
2023-04-17T00:09:13.816Z,33.55
2023-04-17T00:11:42.398Z,32.00
2023-04-17T00:14:10.912Z,36.20
2023-04-17T00:16:39.459Z,31.38
2023-04-17T00:19:07.906Z,29.88
2023-04-17T00:21:36.350Z,31.85
2023-04-17T00:24:05.017Z,36.85
2023-04-17T00:26:34.610Z,37.25
2023-04-17T00:29:03.055Z,28.65
2023-04-17T00:31:31.540Z,61.90
2023-04-17T00:34:01.373Z,34.47
2023-04-17T00:36:31.821Z,29.80
2023-04-17T00:39:00.579Z,34.88
2023-04-17T00:41:29.129Z,40.40
2023-04-17T00:43:57.582Z,32.00
2023-04-17T00:46:26.154Z,37.50
2023-04-17T00:48:55.043Z,36.42
2023-04-17T00:51:23.590Z,30.63
2023-04-17T00:53:52.289Z,32.33
2023-04-17T00:56:21.568Z,27.15
2023-04-17T00:58:50.581Z,32.42
2023-04-17T01:01:19.102Z,34.13
2023-04-17T01:03:49.191Z,32.10
2023-04-17T01:06:17.694Z,42.17
2023-04-17T01:08:46.257Z,31.33
2023-04-17T01:11:14.667Z,32.17
2023-04-17T01:13:46.635Z,34.17
2023-04-17T01:16:15.591Z,30.67
2023-04-17T01:18:44.298Z,29.45
2023-04-17T01:21:12.903Z,41.38
2023-04-17T01:23:52.994Z,32.53
2023-04-17T01:26:25.552Z,33.88
2023-04-17T01:28:58.424Z,28.15
2023-04-17T01:31:30.383Z,27.67
2023-04-17T01:34:00.353Z,32.47
2023-04-17T01:36:29.376Z,32.30
2023-04-17T01:38:57.840Z,22.23
2023-04-17T01:41:26.420Z,35.65
2023-04-17T01:43:54.806Z,31.17
2023-04-17T01:46:23.327Z,34.47
2023-04-17T01:48:52.221Z,27.00
2023-04-17T01:51:20.786Z,31.02
2023-04-17T01:53:49.161Z,38.65
2023-04-17T01:56:17.947Z,35.03
2023-04-17T01:58:46.357Z,29.08
2023-04-17T02:01:14.824Z,33.03
2023-04-17T02:03:43.343Z,37.75
2023-04-17T02:06:12.140Z,30.00
2023-04-17T02:08:40.734Z,21.83
2023-04-17T02:11:10.184Z,32.50
2023-04-17T02:13:38.559Z,30.67
2023-04-17T02:16:07.588Z,29.65
2023-04-17T02:18:36.004Z,29.08
2023-04-17T02:21:04.358Z,40.28
2023-04-17T02:23:32.818Z,29.88
2023-04-17T02:26:01.199Z,30.08
2023-04-17T02:28:29.763Z,24.90
2023-04-17T02:30:58.930Z,26.15
2023-04-17T02:33:28.091Z,28.08
2023-04-17T02:35:56.472Z,37.92
2023-04-17T02:38:25.037Z,26.10
2023-04-17T02:40:53.455Z,28.23
2023-04-17T02:43:21.921Z,30.70
2023-04-17T02:45:50.415Z,28.67
2023-04-17T02:48:18.848Z,34.38
2023-04-17T02:50:47.297Z,34.70
2023-04-17T02:53:15.738Z,33.50
2023-04-17T02:55:44.308Z,40.33
2023-04-17T02:58:13.455Z,30.55
2023-04-17T03:00:42.018Z,35.95
2023-04-17T03:03:10.509Z,33.17
2023-04-17T03:05:39.019Z,47.05
2023-04-17T03:08:07.511Z,32.75
2023-04-17T03:10:35.928Z,34.45
2023-04-17T03:13:04.507Z,30.98
2023-04-17T03:15:33.155Z,37.97
2023-04-17T03:18:01.653Z,30.83
2023-04-17T03:20:30.177Z,45.40
2023-04-17T03:22:58.556Z,35.70
2023-04-17T03:25:26.933Z,27.23
2023-04-17T03:27:56.527Z,36.75
2023-04-17T03:30:25.422Z,40.22
2023-04-17T03:32:53.882Z,35.55
2023-04-17T03:35:22.610Z,41.28
2023-04-17T03:37:51.356Z,44.72
2023-04-17T03:40:19.785Z,30.90
2023-04-17T03:42:48.726Z,35.15
2023-04-17T03:45:17.117Z,38.25
2023-04-17T03:47:47.604Z,38.25
2023-04-17T03:50:16.201Z,32.88
2023-04-17T03:52:44.641Z,35.35
2023-04-17T03:55:13.083Z,46.50
2023-04-17T03:57:41.528Z,34.40
2023-04-17T04:00:10.570Z,30.63
2023-04-17T04:02:39.026Z,34.88
2023-04-17T04:05:07.894Z,49.42
2023-04-17T04:07:36.331Z,37.88
2023-04-17T04:10:05.247Z,36.47
2023-04-17T04:12:33.686Z,44.15
2023-04-17T04:15:02.342Z,41.95
2023-04-17T04:17:30.829Z,39.72
2023-04-17T04:19:59.772Z,47.88
2023-04-17T04:22:29.508Z,34.88
2023-04-17T04:24:57.990Z,36.08
2023-04-17T04:27:27.669Z,35.63
2023-04-17T04:29:58.859Z,48.13
2023-04-17T04:32:28.279Z,42.00
2023-04-17T04:34:58.408Z,32.80
2023-04-17T04:37:30.004Z,43.15
2023-04-17T04:40:10.900Z,49.78
2023-04-17T04:42:39.754Z,36.88
2023-04-17T04:45:09.316Z,47.08
2023-04-17T04:47:37.857Z,46.83
2023-04-17T04:50:06.961Z,42.33
2023-04-17T04:52:35.830Z,39.70
2023-04-17T04:55:04.771Z,39.85
2023-04-17T04:57:33.172Z,43.03
2023-04-17T05:00:01.621Z,36.72
2023-04-17T05:02:30.531Z,42.03
2023-04-17T05:04:59.036Z,41.67
2023-04-17T05:07:27.549Z,43.25
2023-04-17T05:09:56.381Z,39.00
2023-04-17T05:12:24.828Z,37.03
2023-04-17T05:14:53.189Z,42.28
2023-04-17T05:17:21.768Z,35.72
2023-04-17T05:19:50.345Z,36.35
2023-04-17T05:22:18.771Z,54.13
2023-04-17T05:24:47.164Z,48.08
2023-04-17T05:27:16.483Z,43.42
2023-04-17T05:29:44.958Z,37.50
2023-04-17T05:32:13.404Z,42.80
2023-04-17T05:34:41.785Z,40.60
2023-04-17T05:37:10.222Z,48.53
2023-04-17T05:39:38.642Z,52.00
2023-04-17T05:42:07.088Z,42.97
2023-04-17T05:44:35.436Z,44.92
2023-04-17T05:47:03.926Z,50.40
2023-04-17T05:49:32.342Z,46.13
2023-04-17T05:52:00.835Z,46.80
2023-04-17T05:54:30.363Z,55.35
2023-04-17T05:56:58.794Z,50.40
2023-04-17T05:59:27.363Z,42.03
2023-04-17T06:01:55.884Z,44.30
2023-04-17T06:04:24.691Z,54.45
2023-04-17T06:06:54.292Z,40.75
2023-04-17T06:09:24.476Z,59.15
2023-04-17T06:11:54.060Z,45.38
2023-04-17T06:14:22.665Z,48.35
2023-04-17T06:16:51.195Z,46.67
2023-04-17T06:19:19.717Z,52.53
2023-04-17T06:21:48.455Z,59.13
2023-04-17T06:24:17.244Z,55.85
2023-04-17T06:26:45.840Z,58.13
2023-04-17T06:29:15.480Z,55.13
2023-04-17T06:31:43.923Z,60.70
2023-04-17T06:34:12.451Z,54.47
2023-04-17T06:36:41.218Z,67.22
2023-04-17T06:39:09.819Z,49.85
2023-04-17T06:41:38.408Z,52.80
2023-04-17T06:44:07.650Z,45.38
2023-04-17T06:46:36.266Z,53.53
2023-04-17T06:49:04.726Z,43.13
2023-04-17T06:51:33.196Z,63.00
2023-04-17T06:54:01.597Z,58.92
2023-04-17T06:56:30.045Z,56.70
2023-04-17T06:58:59.806Z,43.65
2023-04-17T07:01:31.339Z,43.63
2023-04-17T07:03:59.870Z,37.47
2023-04-17T07:06:29.058Z,40.63
2023-04-17T07:08:57.589Z,51.85
2023-04-17T07:11:26.113Z,52.20
2023-04-17T07:13:54.688Z,39.53
2023-04-17T07:16:23.230Z,41.25
2023-04-17T07:18:52.151Z,38.30
2023-04-17T07:21:20.734Z,50.15
2023-04-17T07:23:49.149Z,38.00
2023-04-17T07:26:17.690Z,45.30
2023-04-17T07:28:46.198Z,42.03
2023-04-17T07:31:14.603Z,41.42
2023-04-17T07:33:43.070Z,44.00
2023-04-17T07:36:12.057Z,35.42
2023-04-17T07:38:42.168Z,35.78
2023-04-17T07:41:12.317Z,46.75
2023-04-17T07:43:41.137Z,39.47
2023-04-17T07:46:09.513Z,38.58
2023-04-17T07:48:40.336Z,42.15
2023-04-17T07:51:08.773Z,35.90
2023-04-17T07:53:38.686Z,38.33
2023-04-17T07:56:07.093Z,47.33
2023-04-17T07:58:35.968Z,39.17
2023-04-17T08:01:07.760Z,37.05
2023-04-17T08:03:36.403Z,36.38
2023-04-17T08:06:05.221Z,38.63
2023-04-17T08:08:33.681Z,46.30
2023-04-17T08:11:02.114Z,38.50
2023-04-17T08:13:32.074Z,35.67
2023-04-17T08:16:01.458Z,37.63
2023-04-17T08:18:29.962Z,34.90
2023-04-17T08:20:58.328Z,33.45
2023-04-17T08:23:27.056Z,33.83
2023-04-17T08:25:55.577Z,39.42
2023-04-17T08:28:24.649Z,35.95
2023-04-17T08:30:53.130Z,35.40
2023-04-17T08:33:21.693Z,37.55
2023-04-17T08:35:51.403Z,37.40
2023-04-17T08:38:19.794Z,39.35
2023-04-17T08:40:51.953Z,35.67
2023-04-17T08:43:22.411Z,39.35
2023-04-17T08:45:54.111Z,32.63
2023-04-17T08:48:24.210Z,31.17
2023-04-17T08:50:53.658Z,30.42
2023-04-17T08:53:22.172Z,30.55
2023-04-17T08:55:50.593Z,43.60
2023-04-17T08:58:21.885Z,38.13
2023-04-17T09:00:50.655Z,36.15
2023-04-17T09:03:19.530Z,37.70
2023-04-17T09:05:48.656Z,29.92
2023-04-17T09:08:24.078Z,40.80
2023-04-17T09:10:54.459Z,36.47
2023-04-17T09:13:25.203Z,40.20
2023-04-17T09:16:08.277Z,35.05
2023-04-17T09:18:37.817Z,44.70
2023-04-17T09:21:07.455Z,36.13
2023-04-17T09:23:49.668Z,42.40
2023-04-17T09:26:20.992Z,30.35
2023-04-17T09:29:03.868Z,32.43
2023-04-17T09:31:34.689Z,29.00
2023-04-17T09:34:09.110Z,33.90
2023-04-17T09:36:39.139Z,32.63
2023-04-17T09:39:23.808Z,42.35
2023-04-17T09:42:04.070Z,31.88
2023-04-17T09:44:34.026Z,41.85
2023-04-17T09:47:04.795Z,32.50
2023-04-17T09:49:34.238Z,44.72
2023-04-17T09:52:03.754Z,42.40
2023-04-17T09:54:37.669Z,42.85
2023-04-17T09:57:08.488Z,34.53
2023-04-17T09:59:41.964Z,27.65
2023-04-17T10:02:13.780Z,39.33
2023-04-17T10:04:44.459Z,43.75
2023-04-17T10:07:13.879Z,38.78
2023-04-17T10:09:45.361Z,37.58
2023-04-17T10:12:16.295Z,30.90
2023-04-17T10:14:48.544Z,36.63
2023-04-17T10:17:24.663Z,33.90
2023-04-17T10:19:53.242Z,39.28
2023-04-17T10:22:21.767Z,34.70
2023-04-17T10:25:12.608Z,33.05
2023-04-17T10:27:41.489Z,36.90
2023-04-17T10:30:13.797Z,32.30
2023-04-17T10:32:45.043Z,31.42
2023-04-17T10:35:16.602Z,36.00
2023-04-17T10:37:48.051Z,40.33
2023-04-17T10:40:22.380Z,37.88
2023-04-17T10:43:33.761Z,41.72
2023-04-17T10:46:08.642Z,44.17
2023-04-17T10:48:39.232Z,41.53
2023-04-17T10:51:27.158Z,47.30
2023-04-17T10:53:58.509Z,38.80
2023-04-17T10:56:49.273Z,38.95
2023-04-17T10:59:19.220Z,32.70
2023-04-17T11:01:47.613Z,47.25
2023-04-17T11:04:21.291Z,30.83
2023-04-17T11:06:52.592Z,32.95
2023-04-17T11:09:27.839Z,27.73
2023-04-17T11:12:01.325Z,43.33
2023-04-17T11:14:30.707Z,31.67
2023-04-17T11:16:59.335Z,30.92
2023-04-17T11:19:27.972Z,47.75
2023-04-17T11:22:01.298Z,52.75
2023-04-17T11:24:31.391Z,32.53
2023-04-17T11:27:01.125Z,32.40
2023-04-17T11:29:29.657Z,27.08
2023-04-17T11:32:00.148Z,35.72
2023-04-17T11:34:28.600Z,28.88
2023-04-17T11:36:58.950Z,40.72
2023-04-17T11:39:34.614Z,26.90
2023-04-17T11:42:03.738Z,27.60
2023-04-17T11:44:32.414Z,32.15
2023-04-17T11:47:02.190Z,26.00
2023-04-17T11:49:32.564Z,27.60
2023-04-17T11:52:02.263Z,27.83
2023-04-17T11:54:38.129Z,24.63
2023-04-17T11:57:09.286Z,31.65
2023-04-17T11:59:39.552Z,26.60
2023-04-17T12:02:09.303Z,26.23
2023-04-17T12:04:39.735Z,30.02
2023-04-17T12:07:20.729Z,32.60
2023-04-17T12:09:57.591Z,28.50
2023-04-17T12:12:26.288Z,34.55
2023-04-17T12:14:54.746Z,32.40
2023-04-17T12:17:23.181Z,28.73
2023-04-17T12:19:51.876Z,27.10
2023-04-17T12:22:20.424Z,33.15
2023-04-17T12:24:48.888Z,42.80
2023-04-17T12:27:17.363Z,29.13
2023-04-17T12:29:45.959Z,27.95
2023-04-17T12:32:16.007Z,39.50
2023-04-17T12:34:44.493Z,28.17
2023-04-17T12:37:12.892Z,63.22
2023-04-17T12:39:41.500Z,37.20
2023-04-17T12:42:10.063Z,32.58
2023-04-17T12:47:07.989Z,30.73
2023-04-17T12:49:36.372Z,28.52
2023-04-17T12:52:04.825Z,33.63
2023-04-17T12:54:33.466Z,40.38
2023-04-17T12:57:02.094Z,27.75
2023-04-17T12:59:30.617Z,41.80
2023-04-17T13:01:59.300Z,29.77
2023-04-17T13:04:28.392Z,38.35
2023-04-17T13:06:56.958Z,29.80
2023-04-17T13:09:25.586Z,37.40
2023-04-17T13:11:54.201Z,26.63
2023-04-17T13:14:22.610Z,42.95
2023-04-17T13:16:51.136Z,24.83
2023-04-17T13:19:20.226Z,26.50
2023-04-17T13:21:51.770Z,29.67
2023-04-17T13:24:20.402Z,32.47
2023-04-17T13:26:48.852Z,23.88
2023-04-17T13:29:19.311Z,25.05
2023-04-17T13:31:48.343Z,21.08
2023-04-17T13:34:17.036Z,29.63
2023-04-17T13:36:46.474Z,17.92
2023-04-17T13:39:15.115Z,16.83
2023-04-17T13:41:43.883Z,25.10
2023-04-17T13:44:13.657Z,19.80
2023-04-17T13:46:42.139Z,22.52
2023-04-17T13:49:11.381Z,27.88
2023-04-17T13:51:40.162Z,18.05
2023-04-17T13:54:10.132Z,17.48
2023-04-17T13:56:38.849Z,22.65
2023-04-17T13:59:07.401Z,24.25
2023-04-17T14:01:35.913Z,14.00
2023-04-17T14:04:05.026Z,24.50
2023-04-17T14:06:34.758Z,22.13
2023-04-17T14:09:03.447Z,16.73
2023-04-17T14:11:32.008Z,13.18
2023-04-17T14:14:00.451Z,24.35
2023-04-17T14:16:28.969Z,16.10
2023-04-17T14:19:01.377Z,15.85
2023-04-17T14:21:36.034Z,14.57
2023-04-17T14:24:04.507Z,16.55
2023-04-17T14:26:33.139Z,15.38
2023-04-17T14:29:01.622Z,53.60
2023-04-17T14:31:31.155Z,17.42
2023-04-17T14:33:59.557Z,17.35
2023-04-17T14:36:27.977Z,13.80
2023-04-17T14:38:56.469Z,23.40
2023-04-17T14:41:29.798Z,17.30
2023-04-17T14:43:58.313Z,16.65
2023-04-17T14:46:26.920Z,16.75
2023-04-17T14:48:56.380Z,16.63
2023-04-17T14:51:25.028Z,18.27
2023-04-17T14:53:53.538Z,20.00
2023-04-17T14:56:22.176Z,26.33
2023-04-17T14:58:50.766Z,18.73
2023-04-17T15:01:19.184Z,25.15
2023-04-17T15:03:48.911Z,16.67
2023-04-17T15:06:18.707Z,21.25
2023-04-17T15:08:47.228Z,18.02
2023-04-17T15:11:15.974Z,23.13
2023-04-17T15:13:44.365Z,22.15
2023-04-17T15:16:12.802Z,24.50
2023-04-17T15:18:41.230Z,23.08
2023-04-17T15:21:09.788Z,16.70
2023-04-17T15:23:38.198Z,18.13
2023-04-17T15:26:06.665Z,31.65
2023-04-17T15:28:36.038Z,14.80
2023-04-17T15:31:04.557Z,16.33
2023-04-17T15:33:33.558Z,18.52
2023-04-17T15:36:02.039Z,23.27
2023-04-17T15:38:30.617Z,15.10
2023-04-17T15:40:59.210Z,16.85
2023-04-17T15:43:27.589Z,13.95
2023-04-17T15:45:56.184Z,24.65
2023-04-17T15:48:24.609Z,23.25
2023-04-17T15:50:53.111Z,27.25
2023-04-17T15:53:21.797Z,21.52
2023-04-17T15:55:52.021Z,21.17
2023-04-17T15:58:20.533Z,29.77
2023-04-17T16:00:49.099Z,22.70
2023-04-17T16:03:17.749Z,17.33
2023-04-17T16:05:46.293Z,27.73
2023-04-17T16:08:14.745Z,12.77
2023-04-17T16:10:43.193Z,16.77
2023-04-17T16:13:11.629Z,19.73
2023-04-17T16:15:40.185Z,17.55
2023-04-17T16:18:08.810Z,20.20
2023-04-17T16:20:39.156Z,13.95
2023-04-17T16:23:07.690Z,15.00
2023-04-17T16:25:36.325Z,27.20
2023-04-17T16:28:04.756Z,14.63
2023-04-17T16:30:33.166Z,15.65
2023-04-17T16:33:01.637Z,22.73
2023-04-17T16:35:30.151Z,18.52
2023-04-17T16:37:58.545Z,19.65
2023-04-17T16:40:27.144Z,25.83
2023-04-17T16:42:55.527Z,19.92
2023-04-17T16:45:23.948Z,17.08
2023-04-17T16:47:52.581Z,24.20
2023-04-17T16:50:21.272Z,15.75
2023-04-17T16:52:50.349Z,16.88
2023-04-17T16:55:18.804Z,26.13
2023-04-17T16:57:48.048Z,20.25
2023-04-17T17:00:16.752Z,15.63
2023-04-17T17:02:45.361Z,16.95
2023-04-17T17:05:15.549Z,16.67
2023-04-17T17:07:43.982Z,20.38
2023-04-17T17:10:12.489Z,16.40
2023-04-17T17:12:41.161Z,22.77
2023-04-17T17:15:10.117Z,14.52
2023-04-17T17:17:38.668Z,24.08
2023-04-17T17:20:07.905Z,14.80
2023-04-17T17:22:36.295Z,16.55
2023-04-17T17:25:05.283Z,17.40
2023-04-17T17:27:33.753Z,17.85
2023-04-17T17:30:03.053Z,31.48
2023-04-17T17:32:31.581Z,15.68
2023-04-17T17:35:00.143Z,22.50
2023-04-17T17:37:28.612Z,19.30
2023-04-17T17:39:57.037Z,17.33
2023-04-17T17:42:25.371Z,13.43
2023-04-17T17:44:53.828Z,17.10
2023-04-17T17:47:22.275Z,15.45
2023-04-17T17:49:50.776Z,19.45
2023-04-17T17:52:19.199Z,14.75
2023-04-17T17:54:47.644Z,13.25
2023-04-17T17:57:16.014Z,32.03
2023-04-17T17:59:45.076Z,16.05
2023-04-17T18:02:13.813Z,22.80
2023-04-17T18:04:42.269Z,19.00
2023-04-17T18:07:10.731Z,17.65
2023-04-17T18:09:39.095Z,18.90
2023-04-17T18:12:07.690Z,15.25
2023-04-17T18:14:36.255Z,30.25
2023-04-17T18:17:04.679Z,33.63
2023-04-17T18:19:33.217Z,23.55
2023-04-17T18:22:01.572Z,24.05
2023-04-17T18:24:30.626Z,18.13
2023-04-17T18:26:59.032Z,57.88
2023-04-17T18:29:27.562Z,45.20
2023-04-17T18:31:56.160Z,21.90
2023-04-17T18:34:24.693Z,14.13
2023-04-17T18:36:53.190Z,22.10
2023-04-17T18:39:21.673Z,25.15
2023-04-17T18:41:50.239Z,27.30
2023-04-17T18:44:18.678Z,33.85
2023-04-17T18:46:48.344Z,29.98
2023-04-17T18:49:17.020Z,42.65
2023-04-17T18:51:47.847Z,66.43
2023-04-17T18:54:17.493Z,18.05
2023-04-17T18:56:45.965Z,18.85
2023-04-17T18:59:14.801Z,22.63
2023-04-17T19:01:43.463Z,22.92
2023-04-17T19:04:12.027Z,17.77
2023-04-17T19:06:40.867Z,27.38
2023-04-17T19:09:09.316Z,15.63
2023-04-17T19:11:37.789Z,15.27
2023-04-17T19:14:06.205Z,24.83
2023-04-17T19:16:34.716Z,17.45
2023-04-17T19:19:05.354Z,16.17
2023-04-17T19:21:34.530Z,16.70
2023-04-17T19:24:03.628Z,17.33
2023-04-17T19:26:31.980Z,42.65
2023-04-17T19:29:00.641Z,19.27
2023-04-17T19:31:29.043Z,42.03
2023-04-17T19:33:57.488Z,15.50
2023-04-17T19:36:27.418Z,33.05
2023-04-17T19:38:59.022Z,33.83
2023-04-17T19:41:27.858Z,21.75
2023-04-17T19:43:56.347Z,24.30
2023-04-17T19:46:25.779Z,15.07
2023-04-17T19:48:54.245Z,16.15
2023-04-17T19:51:22.735Z,13.82
2023-04-17T19:53:53.152Z,18.60
2023-04-17T19:56:21.656Z,23.63
2023-04-17T19:58:50.177Z,17.13
2023-04-17T20:01:18.955Z,33.60
2023-04-17T20:03:47.712Z,18.10
2023-04-17T20:06:16.346Z,17.95
2023-04-17T20:08:45.103Z,16.85
2023-04-17T20:11:15.935Z,15.20
2023-04-17T20:13:44.349Z,24.13
2023-04-17T20:16:12.794Z,22.30
2023-04-17T20:18:43.358Z,21.30
2023-04-17T20:21:12.592Z,28.83
2023-04-17T20:23:41.149Z,18.95
2023-04-17T20:26:09.741Z,18.13
2023-04-17T20:28:38.122Z,19.00
2023-04-17T20:31:06.711Z,19.58
2023-04-17T20:33:35.514Z,19.33
2023-04-17T20:36:05.156Z,20.00
2023-04-17T20:38:33.572Z,24.15
2023-04-17T20:41:01.996Z,18.38
2023-04-17T20:43:33.263Z,18.38
2023-04-17T20:46:02.222Z,16.03
2023-04-17T20:48:30.779Z,19.83
2023-04-17T20:51:02.093Z,16.45
2023-04-17T20:53:30.569Z,19.90
2023-04-17T20:55:58.957Z,24.40
2023-04-17T20:58:27.473Z,21.38
2023-04-17T21:01:01.228Z,27.95
2023-04-17T21:03:31.172Z,25.23
2023-04-17T21:06:00.190Z,18.98
2023-04-17T21:08:28.683Z,19.23
2023-04-17T21:10:57.255Z,21.10
2023-04-17T21:13:26.475Z,23.75
2023-04-17T21:15:55.023Z,21.25
2023-04-17T21:18:23.596Z,18.50
2023-04-17T21:20:52.113Z,20.35
2023-04-17T21:23:20.673Z,20.58
2023-04-17T21:25:51.723Z,19.95
2023-04-17T21:28:20.500Z,17.73
2023-04-17T21:30:48.984Z,20.42
2023-04-17T21:33:17.685Z,15.98
2023-04-17T21:35:46.247Z,30.55
2023-04-17T21:38:14.679Z,18.83
2023-04-17T21:40:51.156Z,14.38
2023-04-17T21:43:20.047Z,12.52
2023-04-17T21:45:49.686Z,20.55
2023-04-17T21:48:18.403Z,14.75
2023-04-17T21:50:46.858Z,17.70
2023-04-17T21:53:15.502Z,15.30
2023-04-17T21:55:43.926Z,10.85
2023-04-17T21:58:12.373Z,15.13
2023-04-17T22:00:40.969Z,13.05
2023-04-17T22:03:09.579Z,13.20
2023-04-17T22:05:38.170Z,18.08
2023-04-17T22:08:06.712Z,16.25
2023-04-17T22:10:35.494Z,16.80
2023-04-17T22:13:03.936Z,29.77
2023-04-17T22:15:32.406Z,14.80
2023-04-17T22:18:00.990Z,15.32
2023-04-17T22:20:29.477Z,16.05
2023-04-17T22:22:57.917Z,16.08
2023-04-17T22:25:26.525Z,11.57
2023-04-17T22:27:55.000Z,14.60
2023-04-17T22:30:23.649Z,14.13
2023-04-17T22:32:52.078Z,10.13
2023-04-17T22:35:20.729Z,54.67
2023-04-17T22:37:49.288Z,12.95
2023-04-17T22:40:17.831Z,19.70
2023-04-17T22:42:46.366Z,10.80
2023-04-17T22:45:14.907Z,13.82
2023-04-17T22:47:43.423Z,13.13
2023-04-17T22:50:13.785Z,12.50
2023-04-17T22:52:42.213Z,16.55
2023-04-17T22:55:11.113Z,11.02
2023-04-17T22:57:39.590Z,14.07
2023-04-17T23:00:09.674Z,11.25
2023-04-17T23:02:38.340Z,10.77
2023-04-17T23:05:07.447Z,12.55
2023-04-17T23:07:35.940Z,22.58
2023-04-17T23:10:04.696Z,14.80
2023-04-17T23:12:33.229Z,12.32
2023-04-17T23:15:01.834Z,13.13
2023-04-17T23:17:31.081Z,12.10
2023-04-17T23:19:59.617Z,17.10
2023-04-17T23:22:28.068Z,13.13
2023-04-17T23:24:57.126Z,12.23
2023-04-17T23:27:25.944Z,14.38
2023-04-17T23:29:54.422Z,12.23
2023-04-17T23:32:23.086Z,21.20
2023-04-17T23:34:51.708Z,12.32
2023-04-17T23:37:20.136Z,12.38
2023-04-17T23:39:48.642Z,14.27
2023-04-17T23:42:17.433Z,13.55
2023-04-17T23:44:45.857Z,17.67
2023-04-17T23:47:14.319Z,18.17
2023-04-17T23:49:42.843Z,13.35
2023-04-17T23:52:11.341Z,18.42
2023-04-17T23:54:39.799Z,17.60
2023-04-17T23:57:08.409Z,14.20
2023-04-17T23:59:36.831Z,18.27
